sensor_id;sensor_type;location;lat;lon;timestamp;temperature;humidity
60909;DHT22;46780;48.128;-1.704;2023-08-12T00:01:14;20.20;99.90
60909;DHT22;46780;48.128;-1.704;2023-08-12T00:03:41;20.20;99.90
60909;DHT22;46780;48.128;-1.704;2023-08-12T00:06:07;20.20;99.90
60909;DHT22;46780;48.128;-1.704;2023-08-12T00:08:33;20.20;99.90
60909;DHT22;46780;48.128;-1.704;2023-08-12T00:11:00;20.20;99.90
60909;DHT22;46780;48.128;-1.704;2023-08-12T00:13:28;20.20;99.90
60909;DHT22;46780;48.128;-1.704;2023-08-12T00:15:54;20.20;99.90
60909;DHT22;46780;48.128;-1.704;2023-08-12T00:18:21;20.20;99.90
60909;DHT22;46780;48.128;-1.704;2023-08-12T00:20:48;20.20;99.90
60909;DHT22;46780;48.128;-1.704;2023-08-12T00:23:14;20.20;99.90
60909;DHT22;46780;48.128;-1.704;2023-08-12T00:25:41;20.10;99.90
60909;DHT22;46780;48.128;-1.704;2023-08-12T00:28:07;20.10;99.90
60909;DHT22;46780;48.128;-1.704;2023-08-12T00:30:35;20.10;99.90
60909;DHT22;46780;48.128;-1.704;2023-08-12T00:33:01;20.10;99.90
60909;DHT22;46780;48.128;-1.704;2023-08-12T00:35:28;20.10;99.90
60909;DHT22;46780;48.128;-1.704;2023-08-12T00:37:54;20.10;99.90
60909;DHT22;46780;48.128;-1.704;2023-08-12T00:40:21;20.10;99.90
60909;DHT22;46780;48.128;-1.704;2023-08-12T00:42:47;20.10;99.90
60909;DHT22;46780;48.128;-1.704;2023-08-12T00:45:14;20.00;99.90
60909;DHT22;46780;48.128;-1.704;2023-08-12T00:47:41;20.00;99.90
60909;DHT22;46780;48.128;-1.704;2023-08-12T00:50:09;20.00;99.90
60909;DHT22;46780;48.128;-1.704;2023-08-12T00:52:37;19.90;99.90
60909;DHT22;46780;48.128;-1.704;2023-08-12T00:55:04;19.90;99.90
60909;DHT22;46780;48.128;-1.704;2023-08-12T00:57:30;19.90;99.90
60909;DHT22;46780;48.128;-1.704;2023-08-12T00:59:57;19.80;99.90
60909;DHT22;46780;48.128;-1.704;2023-08-12T01:02:23;19.80;99.90
60909;DHT22;46780;48.128;-1.704;2023-08-12T01:04:51;19.80;99.90
60909;DHT22;46780;48.128;-1.704;2023-08-12T01:07:18;19.70;99.90
60909;DHT22;46780;48.128;-1.704;2023-08-12T01:09:44;19.70;99.90
60909;DHT22;46780;48.128;-1.704;2023-08-12T01:12:15;19.70;99.90
60909;DHT22;46780;48.128;-1.704;2023-08-12T01:14:48;19.70;99.90
60909;DHT22;46780;48.128;-1.704;2023-08-12T01:17:17;19.70;99.90
60909;DHT22;46780;48.128;-1.704;2023-08-12T01:19:44;19.60;99.90
60909;DHT22;46780;48.128;-1.704;2023-08-12T01:22:14;19.60;99.90
60909;DHT22;46780;48.128;-1.704;2023-08-12T01:24:44;19.60;99.90
60909;DHT22;46780;48.128;-1.704;2023-08-12T01:27:12;19.60;99.90
60909;DHT22;46780;48.128;-1.704;2023-08-12T01:29:41;19.60;99.90
60909;DHT22;46780;48.128;-1.704;2023-08-12T01:32:12;19.50;99.90
60909;DHT22;46780;48.128;-1.704;2023-08-12T01:34:45;19.50;99.90
60909;DHT22;46780;48.128;-1.704;2023-08-12T01:37:21;19.50;99.90
60909;DHT22;46780;48.128;-1.704;2023-08-12T01:39:51;19.50;99.90
60909;DHT22;46780;48.128;-1.704;2023-08-12T01:42:19;19.50;99.90
60909;DHT22;46780;48.128;-1.704;2023-08-12T01:44:46;19.50;99.90
60909;DHT22;46780;48.128;-1.704;2023-08-12T01:47:12;19.50;99.90
60909;DHT22;46780;48.128;-1.704;2023-08-12T01:49:38;19.50;99.90
60909;DHT22;46780;48.128;-1.704;2023-08-12T01:52:05;19.50;99.90
60909;DHT22;46780;48.128;-1.704;2023-08-12T01:54:31;19.50;99.90
60909;DHT22;46780;48.128;-1.704;2023-08-12T01:57:00;19.50;99.90
60909;DHT22;46780;48.128;-1.704;2023-08-12T01:59:26;19.50;99.90
60909;DHT22;46780;48.128;-1.704;2023-08-12T02:01:53;19.40;99.90
60909;DHT22;46780;48.128;-1.704;2023-08-12T02:04:19;19.40;99.90
60909;DHT22;46780;48.128;-1.704;2023-08-12T02:06:45;19.40;99.90
60909;DHT22;46780;48.128;-1.704;2023-08-12T02:09:12;19.40;99.90
60909;DHT22;46780;48.128;-1.704;2023-08-12T02:11:38;19.40;99.90
60909;DHT22;46780;48.128;-1.704;2023-08-12T02:14:06;19.30;99.90
60909;DHT22;46780;48.128;-1.704;2023-08-12T02:16:32;19.30;99.90
60909;DHT22;46780;48.128;-1.704;2023-08-12T02:18:59;19.20;99.90
60909;DHT22;46780;48.128;-1.704;2023-08-12T02:21:25;19.20;99.90
60909;DHT22;46780;48.128;-1.704;2023-08-12T02:23:52;19.20;99.90
60909;DHT22;46780;48.128;-1.704;2023-08-12T02:26:18;19.20;99.90
60909;DHT22;46780;48.128;-1.704;2023-08-12T02:28:45;19.10;99.90
60909;DHT22;46780;48.128;-1.704;2023-08-12T02:31:13;19.10;99.90
60909;DHT22;46780;48.128;-1.704;2023-08-12T02:33:39;19.10;99.90
60909;DHT22;46780;48.128;-1.704;2023-08-12T02:36:06;19.00;99.90
60909;DHT22;46780;48.128;-1.704;2023-08-12T02:38:32;18.90;99.90
60909;DHT22;46780;48.128;-1.704;2023-08-12T02:40:59;18.90;99.90
60909;DHT22;46780;48.128;-1.704;2023-08-12T02:43:25;18.90;99.90
60909;DHT22;46780;48.128;-1.704;2023-08-12T02:45:52;18.90;99.90
60909;DHT22;46780;48.128;-1.704;2023-08-12T02:48:20;18.90;99.90
60909;DHT22;46780;48.128;-1.704;2023-08-12T02:50:46;18.80;99.90
60909;DHT22;46780;48.128;-1.704;2023-08-12T02:53:12;18.80;99.90
60909;DHT22;46780;48.128;-1.704;2023-08-12T02:55:39;18.70;99.90
60909;DHT22;46780;48.128;-1.704;2023-08-12T02:58:05;18.70;99.90
60909;DHT22;46780;48.128;-1.704;2023-08-12T03:00:32;18.60;99.90
60909;DHT22;46780;48.128;-1.704;2023-08-12T03:02:58;18.60;99.90
60909;DHT22;46780;48.128;-1.704;2023-08-12T03:05:26;18.50;99.90
60909;DHT22;46780;48.128;-1.704;2023-08-12T03:07:53;18.60;99.90
60909;DHT22;46780;48.128;-1.704;2023-08-12T03:10:19;18.50;99.90
60909;DHT22;46780;48.128;-1.704;2023-08-12T03:12:45;18.50;99.90
60909;DHT22;46780;48.128;-1.704;2023-08-12T03:15:12;18.50;99.90
60909;DHT22;46780;48.128;-1.704;2023-08-12T03:17:38;18.50;99.90
60909;DHT22;46780;48.128;-1.704;2023-08-12T03:20:06;18.60;99.90
60909;DHT22;46780;48.128;-1.704;2023-08-12T03:22:34;18.60;99.90
60909;DHT22;46780;48.128;-1.704;2023-08-12T03:25:01;18.60;99.90
60909;DHT22;46780;48.128;-1.704;2023-08-12T03:27:27;18.60;99.90
60909;DHT22;46780;48.128;-1.704;2023-08-12T03:29:54;18.50;99.90
60909;DHT22;46780;48.128;-1.704;2023-08-12T03:32:20;18.50;99.90
60909;DHT22;46780;48.128;-1.704;2023-08-12T03:34:46;18.50;99.90
60909;DHT22;46780;48.128;-1.704;2023-08-12T03:37:13;18.40;99.90
60909;DHT22;46780;48.128;-1.704;2023-08-12T03:39:41;18.50;99.90
60909;DHT22;46780;48.128;-1.704;2023-08-12T03:42:07;18.50;99.90
60909;DHT22;46780;48.128;-1.704;2023-08-12T03:44:34;18.50;99.90
60909;DHT22;46780;48.128;-1.704;2023-08-12T03:47:00;18.60;99.90
60909;DHT22;46780;48.128;-1.704;2023-08-12T03:49:26;18.60;99.90
60909;DHT22;46780;48.128;-1.704;2023-08-12T03:51:53;18.60;99.90
60909;DHT22;46780;48.128;-1.704;2023-08-12T03:54:19;18.60;99.90
60909;DHT22;46780;48.128;-1.704;2023-08-12T03:56:47;18.60;99.90
60909;DHT22;46780;48.128;-1.704;2023-08-12T03:59:13;18.50;99.90
60909;DHT22;46780;48.128;-1.704;2023-08-12T04:01:40;18.50;99.90
60909;DHT22;46780;48.128;-1.704;2023-08-12T04:04:06;18.50;99.90
60909;DHT22;46780;48.128;-1.704;2023-08-12T04:06:33;18.50;99.90
60909;DHT22;46780;48.128;-1.704;2023-08-12T04:08:59;18.50;99.90
60909;DHT22;46780;48.128;-1.704;2023-08-12T04:11:26;18.50;99.90
60909;DHT22;46780;48.128;-1.704;2023-08-12T04:13:53;18.40;99.90
60909;DHT22;46780;48.128;-1.704;2023-08-12T04:16:20;18.40;99.90
60909;DHT22;46780;48.128;-1.704;2023-08-12T04:18:46;18.40;99.90
60909;DHT22;46780;48.128;-1.704;2023-08-12T04:21:13;18.30;99.90
60909;DHT22;46780;48.128;-1.704;2023-08-12T04:23:39;18.30;99.90
60909;DHT22;46780;48.128;-1.704;2023-08-12T04:26:06;18.20;99.90
60909;DHT22;46780;48.128;-1.704;2023-08-12T04:28:32;18.20;99.90
60909;DHT22;46780;48.128;-1.704;2023-08-12T04:31:00;18.20;99.90
60909;DHT22;46780;48.128;-1.704;2023-08-12T04:33:26;18.10;99.90
60909;DHT22;46780;48.128;-1.704;2023-08-12T04:35:53;18.00;99.90
60909;DHT22;46780;48.128;-1.704;2023-08-12T04:38:19;18.00;99.90
60909;DHT22;46780;48.128;-1.704;2023-08-12T04:40:46;17.90;99.90
60909;DHT22;46780;48.128;-1.704;2023-08-12T04:43:12;17.80;99.90
60909;DHT22;46780;48.128;-1.704;2023-08-12T04:45:39;17.80;99.90
60909;DHT22;46780;48.128;-1.704;2023-08-12T04:48:07;17.70;99.90
60909;DHT22;46780;48.128;-1.704;2023-08-12T04:50:33;17.60;99.90
60909;DHT22;46780;48.128;-1.704;2023-08-12T04:53:00;17.60;99.90
60909;DHT22;46780;48.128;-1.704;2023-08-12T04:55:26;17.60;99.90
60909;DHT22;46780;48.128;-1.704;2023-08-12T04:57:53;17.50;99.90
60909;DHT22;46780;48.128;-1.704;2023-08-12T05:00:20;17.50;99.90
60909;DHT22;46780;48.128;-1.704;2023-08-12T05:02:46;17.50;99.90
60909;DHT22;46780;48.128;-1.704;2023-08-12T05:05:15;17.50;99.90
60909;DHT22;46780;48.128;-1.704;2023-08-12T05:07:41;17.40;99.90
60909;DHT22;46780;48.128;-1.704;2023-08-12T05:10:08;17.40;99.90
60909;DHT22;46780;48.128;-1.704;2023-08-12T05:12:35;17.50;99.90
60909;DHT22;46780;48.128;-1.704;2023-08-12T05:15:01;17.50;99.90
60909;DHT22;46780;48.128;-1.704;2023-08-12T05:17:28;17.50;99.90
60909;DHT22;46780;48.128;-1.704;2023-08-12T05:19:54;17.60;99.90
60909;DHT22;46780;48.128;-1.704;2023-08-12T05:22:22;17.60;99.90
60909;DHT22;46780;48.128;-1.704;2023-08-12T05:24:49;17.70;99.90
60909;DHT22;46780;48.128;-1.704;2023-08-12T05:27:15;17.80;99.90
60909;DHT22;46780;48.128;-1.704;2023-08-12T05:29:42;17.80;99.90
60909;DHT22;46780;48.128;-1.704;2023-08-12T05:32:08;17.90;99.90
60909;DHT22;46780;48.128;-1.704;2023-08-12T05:34:34;18.00;99.90
60909;DHT22;46780;48.128;-1.704;2023-08-12T05:37:01;18.00;99.90
60909;DHT22;46780;48.128;-1.704;2023-08-12T05:39:29;18.00;99.90
60909;DHT22;46780;48.128;-1.704;2023-08-12T05:41:55;18.00;99.90
60909;DHT22;46780;48.128;-1.704;2023-08-12T05:44:21;17.90;99.90
60909;DHT22;46780;48.128;-1.704;2023-08-12T05:46:48;17.80;99.90
60909;DHT22;46780;48.128;-1.704;2023-08-12T05:49:14;17.60;99.90
60909;DHT22;46780;48.128;-1.704;2023-08-12T05:51:41;17.60;99.90
60909;DHT22;46780;48.128;-1.704;2023-08-12T05:54:07;17.50;99.90
60909;DHT22;46780;48.128;-1.704;2023-08-12T05:56:35;17.50;99.90
60909;DHT22;46780;48.128;-1.704;2023-08-12T05:59:02;17.50;99.90
60909;DHT22;46780;48.128;-1.704;2023-08-12T06:01:28;17.60;99.90
60909;DHT22;46780;48.128;-1.704;2023-08-12T06:03:55;17.60;99.90
60909;DHT22;46780;48.128;-1.704;2023-08-12T06:06:21;17.70;99.90
60909;DHT22;46780;48.128;-1.704;2023-08-12T06:08:47;17.80;99.90
60909;DHT22;46780;48.128;-1.704;2023-08-12T06:11:14;18.00;99.90
60909;DHT22;46780;48.128;-1.704;2023-08-12T06:13:42;18.00;99.90
60909;DHT22;46780;48.128;-1.704;2023-08-12T06:16:08;18.10;99.90
60909;DHT22;46780;48.128;-1.704;2023-08-12T06:18:34;18.10;99.90
60909;DHT22;46780;48.128;-1.704;2023-08-12T06:21:01;18.10;99.90
60909;DHT22;46780;48.128;-1.704;2023-08-12T06:23:27;18.10;99.90
60909;DHT22;46780;48.128;-1.704;2023-08-12T06:25:54;18.10;99.90
60909;DHT22;46780;48.128;-1.704;2023-08-12T06:28:20;18.00;99.90
60909;DHT22;46780;48.128;-1.704;2023-08-12T06:30:48;18.10;99.90
60909;DHT22;46780;48.128;-1.704;2023-08-12T06:33:15;18.10;99.90
60909;DHT22;46780;48.128;-1.704;2023-08-12T06:35:42;18.10;99.90
60909;DHT22;46780;48.128;-1.704;2023-08-12T06:38:08;18.10;99.90
60909;DHT22;46780;48.128;-1.704;2023-08-12T06:40:35;18.20;99.90
60909;DHT22;46780;48.128;-1.704;2023-08-12T06:43:01;18.10;99.90
60909;DHT22;46780;48.128;-1.704;2023-08-12T06:45:28;18.10;99.90
60909;DHT22;46780;48.128;-1.704;2023-08-12T06:47:55;18.20;99.90
60909;DHT22;46780;48.128;-1.704;2023-08-12T06:50:22;18.10;99.90
60909;DHT22;46780;48.128;-1.704;2023-08-12T06:52:48;18.00;99.90
60909;DHT22;46780;48.128;-1.704;2023-08-12T06:55:15;18.00;99.90
60909;DHT22;46780;48.128;-1.704;2023-08-12T06:57:41;18.00;99.90
60909;DHT22;46780;48.128;-1.704;2023-08-12T07:00:08;18.00;99.90
60909;DHT22;46780;48.128;-1.704;2023-08-12T07:02:35;18.00;99.90
60909;DHT22;46780;48.128;-1.704;2023-08-12T07:05:04;18.10;99.90
60909;DHT22;46780;48.128;-1.704;2023-08-12T07:07:30;18.20;99.90
60909;DHT22;46780;48.128;-1.704;2023-08-12T07:09:57;18.20;99.90
60909;DHT22;46780;48.128;-1.704;2023-08-12T07:12:24;18.30;99.90
60909;DHT22;46780;48.128;-1.704;2023-08-12T07:14:50;18.30;99.90
60909;DHT22;46780;48.128;-1.704;2023-08-12T07:17:17;18.30;99.90
60909;DHT22;46780;48.128;-1.704;2023-08-12T07:19:43;18.40;99.90
60909;DHT22;46780;48.128;-1.704;2023-08-12T07:22:11;18.50;99.90
60909;DHT22;46780;48.128;-1.704;2023-08-12T07:24:37;18.50;99.90
60909;DHT22;46780;48.128;-1.704;2023-08-12T07:27:04;18.60;99.90
60909;DHT22;46780;48.128;-1.704;2023-08-12T07:29:31;18.70;99.90
60909;DHT22;46780;48.128;-1.704;2023-08-12T07:31:59;18.90;99.90
60909;DHT22;46780;48.128;-1.704;2023-08-12T07:34:26;18.80;99.90
60909;DHT22;46780;48.128;-1.704;2023-08-12T07:36:52;18.90;99.90
60909;DHT22;46780;48.128;-1.704;2023-08-12T07:39:21;18.90;99.90
60909;DHT22;46780;48.128;-1.704;2023-08-12T07:41:48;18.90;99.90
60909;DHT22;46780;48.128;-1.704;2023-08-12T07:44:14;19.00;99.90
60909;DHT22;46780;48.128;-1.704;2023-08-12T07:46:41;19.20;99.90
60909;DHT22;46780;48.128;-1.704;2023-08-12T07:49:07;19.30;99.90
60909;DHT22;46780;48.128;-1.704;2023-08-12T07:51:34;19.50;99.90
60909;DHT22;46780;48.128;-1.704;2023-08-12T07:54:25;19.50;99.90
60909;DHT22;46780;48.128;-1.704;2023-08-12T07:56:52;19.50;99.90
60909;DHT22;46780;48.128;-1.704;2023-08-12T07:59:25;19.40;99.90
60909;DHT22;46780;48.128;-1.704;2023-08-12T08:01:51;19.50;99.90
60909;DHT22;46780;48.128;-1.704;2023-08-12T08:04:20;19.70;99.90
60909;DHT22;46780;48.128;-1.704;2023-08-12T08:06:47;20.00;99.90
60909;DHT22;46780;48.128;-1.704;2023-08-12T08:09:15;20.20;99.90
60909;DHT22;46780;48.128;-1.704;2023-08-12T08:11:41;20.30;99.90
60909;DHT22;46780;48.128;-1.704;2023-08-12T08:14:09;20.40;99.90
60909;DHT22;46780;48.128;-1.704;2023-08-12T08:16:35;20.40;99.90
60909;DHT22;46780;48.128;-1.704;2023-08-12T08:19:02;20.30;99.90
60909;DHT22;46780;48.128;-1.704;2023-08-12T08:21:28;20.30;99.90
60909;DHT22;46780;48.128;-1.704;2023-08-12T08:23:55;20.30;99.90
60909;DHT22;46780;48.128;-1.704;2023-08-12T08:26:22;20.40;99.90
60909;DHT22;46780;48.128;-1.704;2023-08-12T08:28:48;20.40;99.90
60909;DHT22;46780;48.128;-1.704;2023-08-12T08:31:17;20.40;99.90
60909;DHT22;46780;48.128;-1.704;2023-08-12T08:33:46;20.50;99.90
60909;DHT22;46780;48.128;-1.704;2023-08-12T08:36:15;20.50;99.90
60909;DHT22;46780;48.128;-1.704;2023-08-12T08:38:41;20.60;99.90
60909;DHT22;46780;48.128;-1.704;2023-08-12T08:41:09;20.70;99.90
60909;DHT22;46780;48.128;-1.704;2023-08-12T08:43:39;20.90;99.90
60909;DHT22;46780;48.128;-1.704;2023-08-12T08:46:08;21.10;99.90
60909;DHT22;46780;48.128;-1.704;2023-08-12T08:48:44;21.40;99.90
60909;DHT22;46780;48.128;-1.704;2023-08-12T08:51:12;21.90;99.90
60909;DHT22;46780;48.128;-1.704;2023-08-12T08:53:39;22.30;99.90
60909;DHT22;46780;48.128;-1.704;2023-08-12T08:56:06;22.50;99.60
60909;DHT22;46780;48.128;-1.704;2023-08-12T08:58:33;22.80;99.60
60909;DHT22;46780;48.128;-1.704;2023-08-12T09:01:00;23.80;96.00
60909;DHT22;46780;48.128;-1.704;2023-08-12T09:03:28;24.90;90.70
60909;DHT22;46780;48.128;-1.704;2023-08-12T09:06:01;25.70;80.60
60909;DHT22;46780;48.128;-1.704;2023-08-12T09:08:31;26.90;71.60
60909;DHT22;46780;48.128;-1.704;2023-08-12T09:10:59;28.40;60.70
60909;DHT22;46780;48.128;-1.704;2023-08-12T09:13:26;29.90;52.80
60909;DHT22;46780;48.128;-1.704;2023-08-12T09:15:56;30.80;46.40
60909;DHT22;46780;48.128;-1.704;2023-08-12T09:18:23;31.50;44.20
60909;DHT22;46780;48.128;-1.704;2023-08-12T09:20:49;32.40;40.40
60909;DHT22;46780;48.128;-1.704;2023-08-12T09:23:17;32.40;39.20
60909;DHT22;46780;48.128;-1.704;2023-08-12T09:25:44;32.70;37.40
60909;DHT22;46780;48.128;-1.704;2023-08-12T09:28:11;33.10;35.50
60909;DHT22;46780;48.128;-1.704;2023-08-12T09:30:59;33.10;36.10
60909;DHT22;46780;48.128;-1.704;2023-08-12T09:33:27;33.30;34.90
60909;DHT22;46780;48.128;-1.704;2023-08-12T09:35:57;33.90;34.30
60909;DHT22;46780;48.128;-1.704;2023-08-12T09:38:25;33.90;32.80
60909;DHT22;46780;48.128;-1.704;2023-08-12T09:40:52;34.50;32.80
60909;DHT22;46780;48.128;-1.704;2023-08-12T09:43:23;35.00;32.20
60909;DHT22;46780;48.128;-1.704;2023-08-12T09:45:50;35.10;31.10
60909;DHT22;46780;48.128;-1.704;2023-08-12T09:48:17;34.50;32.00
60909;DHT22;46780;48.128;-1.704;2023-08-12T09:50:43;34.10;31.30
60909;DHT22;46780;48.128;-1.704;2023-08-12T09:53:10;34.50;31.50
60909;DHT22;46780;48.128;-1.704;2023-08-12T09:55:39;35.00;30.10
60909;DHT22;46780;48.128;-1.704;2023-08-12T09:58:07;34.70;30.10
60909;DHT22;46780;48.128;-1.704;2023-08-12T10:00:36;33.20;31.70
60909;DHT22;46780;48.128;-1.704;2023-08-12T10:03:03;33.70;31.30
60909;DHT22;46780;48.128;-1.704;2023-08-12T10:05:32;33.80;30.40
60909;DHT22;46780;48.128;-1.704;2023-08-12T10:07:58;32.80;31.50
60909;DHT22;46780;48.128;-1.704;2023-08-12T10:10:25;33.80;30.80
60909;DHT22;46780;48.128;-1.704;2023-08-12T10:12:54;35.00;29.00
60909;DHT22;46780;48.128;-1.704;2023-08-12T10:15:21;33.50;30.10
60909;DHT22;46780;48.128;-1.704;2023-08-12T10:17:48;31.10;33.50
60909;DHT22;46780;48.128;-1.704;2023-08-12T10:20:23;31.40;32.50
60909;DHT22;46780;48.128;-1.704;2023-08-12T10:22:51;31.80;32.20
60909;DHT22;46780;48.128;-1.704;2023-08-12T10:25:19;32.70;31.20
60909;DHT22;46780;48.128;-1.704;2023-08-12T10:27:45;32.70;30.50
60909;DHT22;46780;48.128;-1.704;2023-08-12T10:30:14;30.80;33.80
60909;DHT22;46780;48.128;-1.704;2023-08-12T10:32:41;30.50;35.10
60909;DHT22;46780;48.128;-1.704;2023-08-12T10:35:09;30.50;35.40
60909;DHT22;46780;48.128;-1.704;2023-08-12T10:37:36;30.10;35.40
60909;DHT22;46780;48.128;-1.704;2023-08-12T10:40:04;30.40;35.40
60909;DHT22;46780;48.128;-1.704;2023-08-12T10:42:40;30.10;36.00
60909;DHT22;46780;48.128;-1.704;2023-08-12T10:45:07;29.30;37.10
60909;DHT22;46780;48.128;-1.704;2023-08-12T10:47:40;27.90;40.00
60909;DHT22;46780;48.128;-1.704;2023-08-12T10:50:17;27.00;43.20
60909;DHT22;46780;48.128;-1.704;2023-08-12T10:52:43;27.60;42.70
60909;DHT22;46780;48.128;-1.704;2023-08-12T10:55:20;27.90;42.00
60909;DHT22;46780;48.128;-1.704;2023-08-12T10:57:47;27.70;42.30
60909;DHT22;46780;48.128;-1.704;2023-08-12T11:00:15;27.70;41.60
60909;DHT22;46780;48.128;-1.704;2023-08-12T11:02:47;28.70;40.80
60909;DHT22;46780;48.128;-1.704;2023-08-12T11:05:14;30.50;37.30
60909;DHT22;46780;48.128;-1.704;2023-08-12T11:07:42;32.20;33.90
60909;DHT22;46780;48.128;-1.704;2023-08-12T11:10:14;33.20;32.70
60909;DHT22;46780;48.128;-1.704;2023-08-12T11:12:46;34.60;30.00
60909;DHT22;46780;48.128;-1.704;2023-08-12T11:15:13;36.00;27.90
60909;DHT22;46780;48.128;-1.704;2023-08-12T11:17:41;36.60;26.70
60909;DHT22;46780;48.128;-1.704;2023-08-12T11:20:10;35.30;28.00
60909;DHT22;46780;48.128;-1.704;2023-08-12T11:22:38;32.50;30.70
60909;DHT22;46780;48.128;-1.704;2023-08-12T11:25:06;30.00;35.50
60909;DHT22;46780;48.128;-1.704;2023-08-12T11:27:40;28.10;39.50
60909;DHT22;46780;48.128;-1.704;2023-08-12T11:30:07;26.70;43.30
60909;DHT22;46780;48.128;-1.704;2023-08-12T11:32:34;26.30;45.00
60909;DHT22;46780;48.128;-1.704;2023-08-12T11:35:01;26.60;45.50
60909;DHT22;46780;48.128;-1.704;2023-08-12T11:37:29;26.70;44.50
60909;DHT22;46780;48.128;-1.704;2023-08-12T11:39:56;26.10;43.20
60909;DHT22;46780;48.128;-1.704;2023-08-12T11:42:22;25.50;45.90
60909;DHT22;46780;48.128;-1.704;2023-08-12T11:44:49;25.00;49.00
60909;DHT22;46780;48.128;-1.704;2023-08-12T11:47:15;24.40;53.00
60909;DHT22;46780;48.128;-1.704;2023-08-12T11:49:42;23.90;57.70
60909;DHT22;46780;48.128;-1.704;2023-08-12T11:52:09;23.50;62.40
60909;DHT22;46780;48.128;-1.704;2023-08-12T11:54:38;23.60;65.70
60909;DHT22;46780;48.128;-1.704;2023-08-12T11:57:06;25.00;60.20
60909;DHT22;46780;48.128;-1.704;2023-08-12T11:59:33;26.90;52.70
60909;DHT22;46780;48.128;-1.704;2023-08-12T12:02:01;27.70;46.90
60909;DHT22;46780;48.128;-1.704;2023-08-12T12:04:30;27.20;45.70
60909;DHT22;46780;48.128;-1.704;2023-08-12T12:06:57;26.50;46.40
60909;DHT22;46780;48.128;-1.704;2023-08-12T12:09:24;25.80;48.50
60909;DHT22;46780;48.128;-1.704;2023-08-12T12:11:52;25.20;49.70
60909;DHT22;46780;48.128;-1.704;2023-08-12T12:14:21;25.40;50.70
60909;DHT22;46780;48.128;-1.704;2023-08-12T12:16:48;27.00;47.40
60909;DHT22;46780;48.128;-1.704;2023-08-12T12:19:16;28.40;43.00
60909;DHT22;46780;48.128;-1.704;2023-08-12T12:21:45;28.30;40.30
60909;DHT22;46780;48.128;-1.704;2023-08-12T12:24:12;27.70;42.10
60909;DHT22;46780;48.128;-1.704;2023-08-12T12:26:38;26.90;43.10
60909;DHT22;46780;48.128;-1.704;2023-08-12T12:29:07;26.40;44.30
60909;DHT22;46780;48.128;-1.704;2023-08-12T12:31:35;25.80;44.70
60909;DHT22;46780;48.128;-1.704;2023-08-12T12:34:03;25.20;46.50
60909;DHT22;46780;48.128;-1.704;2023-08-12T12:36:29;24.90;48.40
60909;DHT22;46780;48.128;-1.704;2023-08-12T12:38:56;24.50;50.70
60909;DHT22;46780;48.128;-1.704;2023-08-12T12:41:24;24.40;53.20
60909;DHT22;46780;48.128;-1.704;2023-08-12T12:43:50;24.20;53.80
60909;DHT22;46780;48.128;-1.704;2023-08-12T12:46:18;24.50;54.10
60909;DHT22;46780;48.128;-1.704;2023-08-12T12:48:46;24.90;52.80
60909;DHT22;46780;48.128;-1.704;2023-08-12T12:51:14;25.20;52.00
60909;DHT22;46780;48.128;-1.704;2023-08-12T12:53:44;25.30;51.70
60909;DHT22;46780;48.128;-1.704;2023-08-12T12:56:11;25.40;51.20
60909;DHT22;46780;48.128;-1.704;2023-08-12T12:58:37;25.40;50.80
60909;DHT22;46780;48.128;-1.704;2023-08-12T13:01:04;25.40;50.90
60909;DHT22;46780;48.128;-1.704;2023-08-12T13:03:33;25.30;50.20
60909;DHT22;46780;48.128;-1.704;2023-08-12T13:05:59;25.10;48.90
60909;DHT22;46780;48.128;-1.704;2023-08-12T13:08:28;24.80;50.40
60909;DHT22;46780;48.128;-1.704;2023-08-12T13:10:55;24.70;49.80
60909;DHT22;46780;48.128;-1.704;2023-08-12T13:13:21;24.90;49.00
60909;DHT22;46780;48.128;-1.704;2023-08-12T13:15:48;25.40;45.80
60909;DHT22;46780;48.128;-1.704;2023-08-12T13:18:15;25.80;44.60
60909;DHT22;46780;48.128;-1.704;2023-08-12T13:20:42;26.00;43.20
60909;DHT22;46780;48.128;-1.704;2023-08-12T13:23:09;26.10;42.10
60909;DHT22;46780;48.128;-1.704;2023-08-12T13:25:36;26.10;41.90
60909;DHT22;46780;48.128;-1.704;2023-08-12T13:28:03;25.80;43.10
60909;DHT22;46780;48.128;-1.704;2023-08-12T13:30:30;25.60;43.70
60909;DHT22;46780;48.128;-1.704;2023-08-12T13:32:57;25.80;44.10
60909;DHT22;46780;48.128;-1.704;2023-08-12T13:35:23;26.10;43.90
60909;DHT22;46780;48.128;-1.704;2023-08-12T13:37:51;26.00;43.10
60909;DHT22;46780;48.128;-1.704;2023-08-12T13:40:18;25.90;43.90
60909;DHT22;46780;48.128;-1.704;2023-08-12T13:42:44;25.60;44.40
60909;DHT22;46780;48.128;-1.704;2023-08-12T13:45:11;25.60;45.10
60909;DHT22;46780;48.128;-1.704;2023-08-12T13:47:38;25.60;44.80
60909;DHT22;46780;48.128;-1.704;2023-08-12T13:50:05;25.70;43.70
60909;DHT22;46780;48.128;-1.704;2023-08-12T13:52:33;25.70;43.80
60909;DHT22;46780;48.128;-1.704;2023-08-12T13:55:01;25.50;42.80
60909;DHT22;46780;48.128;-1.704;2023-08-12T13:57:28;25.40;44.00
60909;DHT22;46780;48.128;-1.704;2023-08-12T13:59:54;25.30;44.40
60909;DHT22;46780;48.128;-1.704;2023-08-12T14:02:21;25.10;45.50
60909;DHT22;46780;48.128;-1.704;2023-08-12T14:04:47;25.10;46.20
60909;DHT22;46780;48.128;-1.704;2023-08-12T14:07:14;25.10;45.80
60909;DHT22;46780;48.128;-1.704;2023-08-12T14:09:41;25.20;45.80
60909;DHT22;46780;48.128;-1.704;2023-08-12T14:12:09;25.10;46.60
60909;DHT22;46780;48.128;-1.704;2023-08-12T14:14:35;24.80;46.70
60909;DHT22;46780;48.128;-1.704;2023-08-12T14:17:02;24.50;48.10
60909;DHT22;46780;48.128;-1.704;2023-08-12T14:19:30;24.30;49.80
60909;DHT22;46780;48.128;-1.704;2023-08-12T14:21:56;24.20;51.20
60909;DHT22;46780;48.128;-1.704;2023-08-12T14:24:23;24.20;52.90
60909;DHT22;46780;48.128;-1.704;2023-08-12T14:26:50;24.10;54.50
60909;DHT22;46780;48.128;-1.704;2023-08-12T14:29:18;24.10;55.30
60909;DHT22;46780;48.128;-1.704;2023-08-12T14:31:45;24.10;54.80
60909;DHT22;46780;48.128;-1.704;2023-08-12T14:34:11;24.20;54.70
60909;DHT22;46780;48.128;-1.704;2023-08-12T14:36:38;24.40;54.60
60909;DHT22;46780;48.128;-1.704;2023-08-12T14:39:05;24.50;53.70
60909;DHT22;46780;48.128;-1.704;2023-08-12T14:41:34;24.50;53.20
60909;DHT22;46780;48.128;-1.704;2023-08-12T14:44:01;24.50;52.20
60909;DHT22;46780;48.128;-1.704;2023-08-12T14:46:29;24.60;53.90
60909;DHT22;46780;48.128;-1.704;2023-08-12T14:49:04;24.70;53.90
60909;DHT22;46780;48.128;-1.704;2023-08-12T14:51:31;24.80;53.60
60909;DHT22;46780;48.128;-1.704;2023-08-12T14:53:58;24.70;53.30
60909;DHT22;46780;48.128;-1.704;2023-08-12T14:56:24;24.60;53.70
60909;DHT22;46780;48.128;-1.704;2023-08-12T14:58:51;24.50;54.30
60909;DHT22;46780;48.128;-1.704;2023-08-12T15:01:17;24.50;55.00
60909;DHT22;46780;48.128;-1.704;2023-08-12T15:03:45;24.40;56.30
60909;DHT22;46780;48.128;-1.704;2023-08-12T15:06:12;24.40;57.10
60909;DHT22;46780;48.128;-1.704;2023-08-12T15:08:38;24.30;56.30
60909;DHT22;46780;48.128;-1.704;2023-08-12T15:11:05;24.10;55.80
60909;DHT22;46780;48.128;-1.704;2023-08-12T15:13:32;23.80;55.20
60909;DHT22;46780;48.128;-1.704;2023-08-12T15:15:58;23.60;56.40